createdAt,value
2017-08-01T00:01:39.200Z,101311.83
2017-08-01T00:04:06.839Z,101318.63
2017-08-01T00:06:34.534Z,101314.52
2017-08-01T00:09:02.206Z,101315.72
2017-08-01T00:11:29.901Z,101305.61
2017-08-01T00:13:57.575Z,101304.11
2017-08-01T00:16:25.270Z,101301.20
2017-08-01T00:18:52.906Z,101291.76
2017-08-01T00:21:20.563Z,101291.59
2017-08-01T00:23:48.171Z,101287.36
2017-08-01T00:26:15.737Z,101288.84
2017-08-01T00:28:43.442Z,101291.83
2017-08-01T00:31:11.079Z,101287.09
2017-08-01T00:33:38.760Z,101270.94
2017-08-01T00:36:06.401Z,101275.05
2017-08-01T00:38:34.139Z,101280.84
2017-08-01T00:41:01.716Z,101282.81
2017-08-01T00:43:29.433Z,101268.80
2017-08-01T00:45:57.121Z,101269.30
2017-08-01T00:48:24.728Z,101268.31
2017-08-01T00:50:52.414Z,101267.68
2017-08-01T00:53:20.063Z,101274.86
2017-08-01T00:55:47.766Z,101281.77
2017-08-01T00:58:15.416Z,101284.68
2017-08-01T01:00:43.119Z,101281.27
2017-08-01T01:03:10.782Z,101276.45
2017-08-01T01:05:38.480Z,101270.36
2017-08-01T01:08:06.141Z,101266.72
2017-08-01T01:10:33.854Z,101262.44
2017-08-01T01:13:01.527Z,101250.98
2017-08-01T01:15:29.219Z,101241.48
2017-08-01T01:17:56.901Z,101239.92
2017-08-01T01:20:24.564Z,101239.61
2017-08-01T01:22:52.282Z,101242.36
2017-08-01T01:25:19.856Z,101246.82
2017-08-01T01:27:47.541Z,101244.09
2017-08-01T01:30:15.185Z,101244.19
2017-08-01T01:32:42.918Z,101248.30
2017-08-01T01:35:10.585Z,101253.59
2017-08-01T01:37:38.311Z,101253.00
2017-08-01T01:40:06.027Z,101254.80
2017-08-01T01:42:33.694Z,101257.27
2017-08-01T01:45:01.436Z,101258.09
2017-08-01T01:47:29.089Z,101253.44
2017-08-01T01:49:56.788Z,101235.69
2017-08-01T01:52:24.437Z,101233.87
2017-08-01T01:54:52.131Z,101230.69
2017-08-01T01:57:19.779Z,101226.34
2017-08-01T01:59:47.451Z,101233.84
2017-08-01T02:02:15.098Z,101236.99
2017-08-01T02:04:42.870Z,101233.28
2017-08-01T02:07:10.518Z,101235.21
2017-08-01T02:09:38.207Z,101235.50
2017-08-01T02:12:05.910Z,101248.41
2017-08-01T02:14:33.547Z,101246.11
2017-08-01T02:17:01.248Z,101248.16
2017-08-01T02:19:28.893Z,101251.73
2017-08-01T02:21:56.608Z,101244.47
2017-08-01T02:24:24.265Z,101241.61
2017-08-01T02:26:51.964Z,101245.17
2017-08-01T02:29:19.623Z,101231.79
2017-08-01T02:31:47.356Z,101233.81
2017-08-01T02:34:15.004Z,101222.12
2017-08-01T02:36:42.652Z,101213.68
2017-08-01T02:39:10.373Z,101210.45
2017-08-01T02:41:38.040Z,101200.81
2017-08-01T02:44:05.721Z,101192.89
2017-08-01T02:46:33.382Z,101194.88
2017-08-01T02:49:01.084Z,101186.50
2017-08-01T02:51:28.738Z,101182.09
2017-08-01T02:53:56.355Z,101188.66
2017-08-01T02:56:24.014Z,101199.25
2017-08-01T02:58:51.711Z,101211.92
2017-08-01T03:01:19.369Z,101217.05
2017-08-01T03:03:47.331Z,101223.48
2017-08-01T03:06:14.953Z,101224.30
2017-08-01T03:08:42.529Z,101219.45
2017-08-01T03:11:10.175Z,101223.42
2017-08-01T03:13:37.814Z,101233.35
2017-08-01T03:16:05.500Z,101250.76
2017-08-01T03:18:33.166Z,101254.23
2017-08-01T03:21:00.787Z,101265.49
2017-08-01T03:23:28.456Z,101273.41
2017-08-01T03:25:56.145Z,101279.80
2017-08-01T03:28:23.810Z,101292.66
2017-08-01T03:30:51.448Z,101306.48
2017-08-01T03:33:19.161Z,101310.56
2017-08-01T03:35:46.742Z,101309.91
2017-08-01T03:38:14.448Z,101318.23
2017-08-01T03:40:42.151Z,101311.42
2017-08-01T03:43:09.858Z,101317.05
2017-08-01T03:45:37.539Z,101309.55
2017-08-01T03:48:05.241Z,101312.20
2017-08-01T03:50:32.896Z,101305.98
2017-08-01T03:53:00.597Z,101300.98
2017-08-01T03:55:28.240Z,101299.98
2017-08-01T03:57:55.881Z,101305.45
2017-08-01T04:00:23.581Z,101305.33
2017-08-01T04:02:51.242Z,101302.82
2017-08-01T04:05:18.951Z,101312.66
2017-08-01T04:07:46.623Z,101321.59
2017-08-01T04:10:14.387Z,101321.86
2017-08-01T04:12:42.076Z,101325.06
2017-08-01T04:15:09.796Z,101325.36
2017-08-01T04:17:37.797Z,101327.64
2017-08-01T04:20:05.491Z,101328.94
2017-08-01T04:22:33.163Z,101332.22
2017-08-01T04:25:00.802Z,101322.82
2017-08-01T04:27:28.513Z,101324.69
2017-08-01T04:29:56.164Z,101318.91
2017-08-01T04:32:23.852Z,101317.09
2017-08-01T04:34:51.500Z,101315.73
2017-08-01T04:37:19.176Z,101313.02
2017-08-01T04:39:46.861Z,101316.13
2017-08-01T04:42:14.541Z,101301.20
2017-08-01T04:44:42.181Z,101309.03
2017-08-01T04:47:09.827Z,101300.34
2017-08-01T04:49:37.414Z,101291.27
2017-08-01T04:52:05.078Z,101288.63
2017-08-01T04:54:32.763Z,101292.61
2017-08-01T04:57:00.401Z,101294.39
2017-08-01T04:59:28.070Z,101289.92
2017-08-01T05:01:55.636Z,101288.97
2017-08-01T05:04:23.252Z,101292.03
2017-08-01T05:06:50.842Z,101297.13
2017-08-01T05:09:18.541Z,101300.00
2017-08-01T05:11:46.136Z,101304.30
2017-08-01T05:14:13.769Z,101307.16
2017-08-01T05:16:41.340Z,101310.52
2017-08-01T05:19:08.951Z,101300.94
2017-08-01T05:21:36.578Z,101295.30
2017-08-01T05:24:04.155Z,101305.64
2017-08-01T05:26:31.793Z,101312.35
2017-08-01T05:28:59.365Z,101306.55
2017-08-01T05:31:26.996Z,101290.25
2017-08-01T05:33:54.590Z,101295.42
2017-08-01T05:36:22.224Z,101285.88
2017-08-01T05:38:49.807Z,101274.77
2017-08-01T05:41:17.437Z,101274.59
2017-08-01T05:43:44.996Z,101272.67
2017-08-01T05:46:12.570Z,101272.47
2017-08-01T05:48:40.179Z,101279.86
2017-08-01T05:51:08.580Z,101274.10
2017-08-01T05:53:36.203Z,101282.91
2017-08-01T05:56:03.785Z,101284.85
2017-08-01T05:58:31.411Z,101292.75
2017-08-01T06:00:59.033Z,101288.59
2017-08-01T06:03:26.678Z,101287.13
2017-08-01T06:05:54.259Z,101286.13
2017-08-01T06:08:21.891Z,101281.55
2017-08-01T06:10:49.468Z,101275.69
2017-08-01T06:13:17.044Z,101269.62
2017-08-01T06:15:44.665Z,101269.45
2017-08-01T06:18:12.251Z,101267.48
2017-08-01T06:20:39.872Z,101263.97
2017-08-01T06:23:07.448Z,101263.37
2017-08-01T06:25:35.099Z,101264.70
2017-08-01T06:28:02.679Z,101257.63
2017-08-01T06:30:30.306Z,101250.36
2017-08-01T06:32:57.885Z,101243.30
2017-08-01T06:35:25.532Z,101224.65
2017-08-01T06:37:53.130Z,101217.88
2017-08-01T06:40:20.713Z,101204.44
2017-08-01T06:42:48.325Z,101204.94
2017-08-01T06:45:15.926Z,101210.17
2017-08-01T06:47:43.550Z,101213.73
2017-08-01T06:50:11.124Z,101215.05
2017-08-01T06:52:38.738Z,101221.19
2017-08-01T06:55:06.323Z,101220.66
2017-08-01T06:57:33.939Z,101225.56
2017-08-01T07:00:01.533Z,101236.32
2017-08-01T07:02:29.269Z,101239.48
2017-08-01T07:04:56.931Z,101238.92
2017-08-01T07:07:24.591Z,101249.01
2017-08-01T07:09:52.291Z,101262.55
2017-08-01T07:12:19.959Z,101266.38
2017-08-01T07:14:47.796Z,101271.80
2017-08-01T07:17:15.452Z,101271.44
2017-08-01T07:19:43.134Z,101255.87
2017-08-01T07:22:10.805Z,101248.37
2017-08-01T07:24:38.500Z,101244.83
2017-08-01T07:27:06.170Z,101241.54
2017-08-01T07:29:33.870Z,101235.69
2017-08-01T07:32:01.505Z,101239.55
2017-08-01T07:34:29.184Z,101241.86
2017-08-01T07:36:56.865Z,101227.50
2017-08-01T07:39:24.554Z,101220.44
2017-08-01T07:41:52.258Z,101209.05
2017-08-01T07:44:19.899Z,101192.31
2017-08-01T07:46:47.611Z,101200.95
2017-08-01T07:49:15.278Z,101216.17
2017-08-01T07:51:42.955Z,101218.86
2017-08-01T07:54:10.636Z,101207.30
2017-08-01T07:56:38.368Z,101210.36
2017-08-01T07:59:06.019Z,101219.91
2017-08-01T08:01:34.495Z,101225.41
2017-08-01T08:04:03.002Z,101231.09
2017-08-01T08:06:30.655Z,101226.02
2017-08-01T08:08:58.354Z,101233.71
2017-08-01T08:11:25.987Z,101233.97
2017-08-01T08:13:53.596Z,101239.70
2017-08-01T08:16:21.335Z,101258.09
2017-08-01T08:18:48.997Z,101265.20
2017-08-01T08:21:16.625Z,101264.21
2017-08-01T08:23:44.249Z,101259.64
2017-08-01T08:26:11.891Z,101250.25
2017-08-01T08:28:39.708Z,101255.48
2017-08-01T08:31:07.291Z,101262.05
2017-08-01T08:33:34.897Z,101266.76
2017-08-01T08:36:02.533Z,101264.82
2017-08-01T08:38:30.182Z,101265.41
2017-08-01T08:40:57.849Z,101270.09
2017-08-01T08:43:25.433Z,101282.13
2017-08-01T08:45:53.089Z,101282.74
2017-08-01T08:48:20.785Z,101294.58
2017-08-01T08:50:48.492Z,101285.83
2017-08-01T08:53:16.083Z,101273.41
2017-08-01T08:55:43.739Z,101282.97
2017-08-01T08:58:11.385Z,101289.09
2017-08-01T09:00:39.036Z,101289.48
2017-08-01T09:03:06.765Z,101281.72
2017-08-01T09:05:34.359Z,101273.42
2017-08-01T09:08:02.080Z,101267.24
2017-08-01T09:11:40.947Z,101256.36
2017-08-01T09:14:08.530Z,101256.84
2017-08-01T09:16:36.101Z,101247.30
2017-08-01T09:19:03.794Z,101238.89
2017-08-01T09:21:31.499Z,101247.41
2017-08-01T09:23:59.123Z,101260.48
2017-08-01T09:26:26.803Z,101264.88
2017-08-01T09:28:54.529Z,101264.30
2017-08-01T09:31:22.200Z,101261.30
2017-08-01T09:33:49.847Z,101266.61
2017-08-01T09:38:44.506Z,101264.62
2017-08-01T09:41:12.206Z,101252.08
2017-08-01T09:43:39.861Z,101261.50
2017-08-01T09:46:07.518Z,101275.75
2017-08-01T09:48:35.211Z,101277.44
2017-08-01T09:51:02.963Z,101270.91
2017-08-01T09:53:30.651Z,101257.53
2017-08-01T09:55:58.391Z,101236.22
2017-08-01T09:58:26.049Z,101239.67
2017-08-01T10:00:53.668Z,101243.71
2017-08-01T10:03:21.331Z,101244.30
2017-08-01T10:05:48.958Z,101243.26
2017-08-01T10:08:16.743Z,101236.53
2017-08-01T10:10:44.404Z,101231.24
2017-08-01T10:13:12.199Z,101229.09
2017-08-01T10:15:39.881Z,101232.40
2017-08-01T10:18:07.629Z,101225.12
2017-08-01T10:20:35.291Z,101224.34
2017-08-01T10:23:02.954Z,101221.33
2017-08-01T10:25:30.656Z,101214.64
2017-08-01T10:27:58.313Z,101213.14
2017-08-01T10:30:26.009Z,101211.95
2017-08-01T10:32:53.663Z,101219.66
2017-08-01T10:35:21.371Z,101224.52
2017-08-01T10:37:49.035Z,101216.58
2017-08-01T10:40:16.796Z,101211.79
2017-08-01T10:42:44.381Z,101210.84
2017-08-01T10:45:12.056Z,101198.28
2017-08-01T10:47:39.780Z,101197.48
2017-08-01T10:50:07.466Z,101196.23
2017-08-01T10:52:35.187Z,101207.59
2017-08-01T10:55:02.853Z,101222.42
2017-08-01T10:57:30.617Z,101231.53
2017-08-01T10:59:58.288Z,101235.84
2017-08-01T11:02:25.997Z,101223.58
2017-08-01T11:04:53.742Z,101236.23
2017-08-01T11:07:21.420Z,101239.72
2017-08-01T11:09:49.116Z,101230.77
2017-08-01T11:12:16.704Z,101218.70
2017-08-01T11:14:44.438Z,101231.97
2017-08-01T11:17:12.021Z,101247.55
2017-08-01T11:19:39.655Z,101249.12
2017-08-01T11:22:17.859Z,101247.34
2017-08-01T11:24:45.484Z,101250.02
2017-08-01T11:27:13.062Z,101245.27
2017-08-01T11:29:40.694Z,101247.97
2017-08-01T11:32:08.279Z,101255.80
2017-08-01T11:34:35.982Z,101263.24
2017-08-01T11:37:03.575Z,101269.84
2017-08-01T11:39:31.172Z,101266.15
2017-08-01T11:41:58.796Z,101254.95
2017-08-01T11:44:26.376Z,101254.31
2017-08-01T11:46:54.027Z,101254.95
2017-08-01T11:49:21.624Z,101249.99
2017-08-01T11:51:49.262Z,101242.57
2017-08-01T11:54:16.853Z,101218.95
2017-08-01T11:56:44.488Z,101207.94
2017-08-01T11:59:12.160Z,101207.20
2017-08-01T12:01:39.924Z,101191.93
2017-08-01T12:04:07.595Z,101183.94
2017-08-01T12:06:35.304Z,101182.91
2017-08-01T12:09:03.037Z,101172.67
2017-08-01T12:11:30.695Z,101172.00
2017-08-01T12:13:58.351Z,101176.76
2017-08-01T12:16:26.007Z,101185.75
2017-08-01T12:18:53.740Z,101181.77
2017-08-01T12:21:21.441Z,101173.32
2017-08-01T12:23:49.055Z,101179.05
2017-08-01T12:26:16.728Z,101182.72
2017-08-01T12:28:44.464Z,101182.53
2017-08-01T12:31:12.151Z,101188.45
2017-08-01T12:33:39.831Z,101187.62
2017-08-01T12:36:07.541Z,101187.62
2017-08-01T12:38:35.273Z,101177.83
2017-08-01T12:41:02.996Z,101177.58
2017-08-01T12:43:30.714Z,101175.33
2017-08-01T12:45:58.468Z,101170.86
2017-08-01T12:48:26.129Z,101161.09
2017-08-01T12:50:53.823Z,101155.61
2017-08-01T12:53:21.495Z,101154.24
2017-08-01T12:55:53.135Z,101148.84
2017-08-01T12:58:20.896Z,101149.02
2017-08-01T13:00:48.613Z,101142.04
2017-08-01T13:03:16.272Z,101149.72
2017-08-01T13:05:43.860Z,101159.66
2017-08-01T13:08:11.480Z,101173.80
2017-08-01T13:10:39.120Z,101175.72
2017-08-01T13:13:06.817Z,101190.16
2017-08-01T13:15:34.445Z,101188.66
2017-08-01T13:18:02.079Z,101184.41
2017-08-01T13:20:29.766Z,101186.31
2017-08-01T13:22:57.437Z,101187.75
2017-08-01T13:25:25.023Z,101191.45
2017-08-01T13:27:52.695Z,101191.81
2017-08-01T13:30:20.424Z,101192.98
2017-08-01T13:32:48.093Z,101197.16
2017-08-01T13:35:15.805Z,101199.61
2017-08-01T13:37:43.468Z,101187.03
2017-08-01T13:40:11.272Z,101196.67
2017-08-01T13:42:38.936Z,101193.19
2017-08-01T13:45:06.693Z,101196.49
2017-08-01T13:47:34.295Z,101204.39
2017-08-01T13:50:01.896Z,101204.94
2017-08-01T13:52:29.625Z,101200.81
2017-08-01T13:54:57.303Z,101207.28
2017-08-01T13:57:25.003Z,101205.01
2017-08-01T13:59:52.676Z,101203.13
2017-08-01T14:02:20.611Z,101207.45
2017-08-01T14:04:48.258Z,101204.83
2017-08-01T14:07:15.988Z,101204.68
2017-08-01T14:09:43.643Z,101206.84
2017-08-01T14:12:11.395Z,101202.87
2017-08-01T14:14:39.102Z,101206.27
2017-08-01T14:17:06.783Z,101208.38
2017-08-01T14:19:34.535Z,101200.91
2017-08-01T14:22:02.216Z,101203.22
2017-08-01T14:24:29.835Z,101200.75
2017-08-01T14:26:57.496Z,101204.16
2017-08-01T14:29:25.207Z,101218.94
2017-08-01T14:31:52.880Z,101223.05
2017-08-01T14:34:20.534Z,101216.92
2017-08-01T14:36:48.252Z,101210.05
2017-08-01T14:39:15.970Z,101204.42
2017-08-01T14:41:43.718Z,101196.13
2017-08-01T14:44:11.380Z,101190.05
2017-08-01T14:46:39.093Z,101186.63
2017-08-01T14:49:06.780Z,101179.65
2017-08-01T14:51:34.515Z,101173.17
2017-08-01T14:54:03.065Z,101167.89
2017-08-01T14:56:30.737Z,101163.44
2017-08-01T14:58:58.497Z,101170.79
2017-08-01T15:01:26.163Z,101172.84
2017-08-01T15:03:53.900Z,101167.36
2017-08-01T15:06:21.583Z,101156.80
2017-08-01T15:08:49.356Z,101147.47
2017-08-01T15:11:17.037Z,101148.67
2017-08-01T15:13:44.759Z,101160.88
2017-08-01T15:16:12.419Z,101155.81
2017-08-01T15:18:40.075Z,101155.39
2017-08-01T15:21:07.698Z,101153.17
2017-08-01T15:23:35.298Z,101164.82
2017-08-01T15:26:02.934Z,101178.66
2017-08-01T15:28:30.602Z,101190.48
2017-08-01T15:30:58.326Z,101204.54
2017-08-01T15:33:26.033Z,101205.34
2017-08-01T15:35:53.797Z,101209.63
2017-08-01T15:38:21.482Z,101213.30
2017-08-01T15:40:49.172Z,101205.56
2017-08-01T15:43:16.875Z,101206.17
2017-08-01T15:45:44.670Z,101217.77
2017-08-01T15:48:12.398Z,101205.54
2017-08-01T15:50:40.067Z,101217.97
2017-08-01T15:53:07.786Z,101216.95
2017-08-01T15:55:35.471Z,101215.52
2017-08-01T15:58:03.125Z,101218.33
2017-08-01T16:00:30.739Z,101218.34
2017-08-01T16:02:58.373Z,101212.00
2017-08-01T16:05:26.003Z,101210.36
2017-08-01T16:07:53.609Z,101215.00
2017-08-01T16:10:21.247Z,101210.33
2017-08-01T16:12:48.831Z,101191.98
2017-08-01T16:15:16.443Z,101170.02
2017-08-01T16:17:44.006Z,101172.48
2017-08-01T16:20:11.672Z,101173.51
2017-08-01T16:22:39.271Z,101177.22
2017-08-01T16:25:06.935Z,101189.06
2017-08-01T16:27:34.568Z,101196.19
2017-08-01T16:30:02.260Z,101197.81
2017-08-01T16:32:29.971Z,101193.52
2017-08-01T16:34:57.636Z,101189.26
2017-08-01T16:37:25.348Z,101195.37
2017-08-01T16:39:53.047Z,101197.60
2017-08-01T16:42:20.772Z,101196.78
2017-08-01T16:44:48.437Z,101204.48
2017-08-01T16:47:16.064Z,101210.18
2017-08-01T16:49:43.807Z,101206.30
2017-08-01T16:52:11.471Z,101207.91
2017-08-01T16:54:39.166Z,101210.72
2017-08-01T16:57:06.769Z,101226.17
2017-08-01T16:59:34.500Z,101231.02
2017-08-01T17:02:02.168Z,101226.83
2017-08-01T17:04:29.807Z,101216.89
2017-08-01T17:06:57.494Z,101214.58
2017-08-01T17:09:25.260Z,101211.59
2017-08-01T17:11:52.996Z,101208.66
2017-08-01T17:14:20.602Z,101215.28
2017-08-01T17:16:48.710Z,101225.12
2017-08-01T17:19:16.881Z,101226.41
2017-08-01T17:21:46.063Z,101220.20
2017-08-01T17:24:16.384Z,101216.72
2017-08-01T17:26:49.166Z,101220.32
2017-08-01T17:29:18.377Z,101227.58
2017-08-01T17:31:47.768Z,101226.16
2017-08-01T17:34:17.944Z,101228.17
2017-08-01T17:36:45.733Z,101231.42
2017-08-01T17:39:13.506Z,101235.64
2017-08-01T17:41:41.518Z,101222.25
2017-08-01T17:44:09.190Z,101223.45
2017-08-01T17:46:38.171Z,101225.86
2017-08-01T17:49:07.794Z,101221.19
2017-08-01T17:51:36.890Z,101224.20
2017-08-01T17:54:05.116Z,101222.59
2017-08-01T17:56:33.972Z,101214.16
2017-08-01T17:59:01.730Z,101214.84
2017-08-01T18:01:30.188Z,101225.28
2017-08-01T18:03:58.657Z,101233.91
2017-08-01T18:06:27.381Z,101250.08
2017-08-01T18:08:56.070Z,101244.16
2017-08-01T18:11:24.723Z,101242.56
2017-08-01T18:13:54.686Z,101235.49
2017-08-01T18:16:23.468Z,101229.83
2017-08-01T18:18:51.997Z,101236.58
2017-08-01T18:21:19.730Z,101237.99
2017-08-01T18:23:52.948Z,101223.81
2017-08-01T18:26:21.744Z,101225.70
2017-08-01T18:28:50.166Z,101223.89
2017-08-01T18:31:19.519Z,101221.98
2017-08-01T18:33:48.228Z,101207.88
2017-08-01T18:36:16.646Z,101200.33
2017-08-01T18:38:44.323Z,101210.56
2017-08-01T18:41:12.234Z,101197.47
2017-08-01T18:43:40.731Z,101196.55
2017-08-01T18:46:09.384Z,101215.52
2017-08-01T18:48:38.247Z,101229.06
2017-08-01T18:51:09.322Z,101213.72
2017-08-01T18:53:38.489Z,101214.80
2017-08-01T18:56:06.619Z,101221.80
2017-08-01T18:58:36.343Z,101208.18
2017-08-01T19:01:03.948Z,101208.52
2017-08-01T19:03:33.262Z,101214.59
2017-08-01T19:06:03.723Z,101222.84
2017-08-01T19:08:31.750Z,101231.89
2017-08-01T19:11:02.547Z,101234.66
2017-08-01T19:13:31.876Z,101237.45
2017-08-01T19:15:59.549Z,101232.88
2017-08-01T19:18:29.232Z,101230.73
2017-08-01T19:20:57.283Z,101234.09
2017-08-01T19:23:24.965Z,101232.94
2017-08-01T19:25:53.548Z,101227.11
2017-08-01T19:28:21.312Z,101236.64
2017-08-01T19:30:49.549Z,101240.94
2017-08-01T19:33:17.727Z,101244.27
2017-08-01T19:35:46.207Z,101256.38
2017-08-01T19:38:16.749Z,101250.19
2017-08-01T19:40:46.714Z,101254.56
2017-08-01T19:43:15.218Z,101260.79
2017-08-01T19:45:43.021Z,101261.58
2017-08-01T19:48:12.315Z,101261.81
2017-08-01T19:50:40.616Z,101259.81
2017-08-01T19:53:08.739Z,101253.50
2017-08-01T19:55:38.400Z,101254.15
2017-08-01T19:58:06.133Z,101251.50
2017-08-01T20:00:34.686Z,101254.66
2017-08-01T20:03:02.425Z,101266.69
2017-08-01T20:05:33.660Z,101273.53
2017-08-01T20:08:01.747Z,101276.69
2017-08-01T20:10:29.832Z,101279.31
2017-08-01T20:12:58.932Z,101281.11
2017-08-01T20:15:27.001Z,101287.20
2017-08-01T20:17:55.387Z,101299.16
2017-08-01T20:20:24.251Z,101295.35
2017-08-01T20:22:56.287Z,101305.53
2017-08-01T20:25:25.255Z,101309.30
2017-08-01T20:27:54.004Z,101320.41
2017-08-01T20:30:22.932Z,101324.92
2017-08-01T20:32:51.273Z,101335.56
2017-08-01T20:35:20.325Z,101332.04
2017-08-01T20:37:48.456Z,101333.72
2017-08-01T20:42:49.183Z,101342.00
2017-08-01T20:45:16.981Z,101331.28
2017-08-01T20:47:45.565Z,101338.80
2017-08-01T20:50:13.697Z,101334.34
2017-08-01T20:52:42.583Z,101333.59
2017-08-01T20:55:12.689Z,101338.16
2017-08-01T20:57:40.481Z,101337.52
2017-08-01T21:00:08.198Z,101338.20
2017-08-01T21:02:36.717Z,101319.28
2017-08-01T21:05:04.464Z,101324.83
2017-08-01T21:07:33.621Z,101321.31
2017-08-01T21:10:01.672Z,101327.28
2017-08-01T21:12:31.521Z,101323.15
2017-08-01T21:15:00.412Z,101335.80
2017-08-01T21:17:28.562Z,101340.48
2017-08-01T21:19:56.673Z,101341.06
2017-08-01T21:22:24.355Z,101346.55
2017-08-01T21:24:52.326Z,101356.34
2017-08-01T21:27:20.468Z,101359.85
2017-08-01T21:29:50.525Z,101355.89
2017-08-01T21:32:19.900Z,101357.20
2017-08-01T21:34:48.564Z,101361.92
2017-08-01T21:37:16.876Z,101363.03
2017-08-01T21:39:45.782Z,101361.72
2017-08-01T21:42:14.585Z,101360.76
2017-08-01T21:44:43.138Z,101351.41
2017-08-01T21:47:13.961Z,101347.31
2017-08-01T21:49:41.653Z,101358.89
2017-08-01T21:52:09.490Z,101353.38
2017-08-01T21:54:38.825Z,101349.00
2017-08-01T21:57:07.519Z,101359.61
2017-08-01T21:59:36.619Z,101354.85
2017-08-01T22:02:05.244Z,101366.11
2017-08-01T22:04:38.239Z,101366.96
2017-08-01T22:07:06.856Z,101365.69
2017-08-01T22:09:34.847Z,101372.87
2017-08-01T22:12:03.017Z,101367.68
2017-08-01T22:14:31.729Z,101358.03
2017-08-01T22:16:59.889Z,101346.32
2017-08-01T22:19:29.826Z,101345.22
2017-08-01T22:21:59.363Z,101343.33
2017-08-01T22:24:28.468Z,101341.98
2017-08-01T22:26:58.353Z,101350.83
2017-08-01T22:29:27.112Z,101353.30
2017-08-01T22:31:55.490Z,101357.28
2017-08-01T22:34:28.848Z,101358.83
2017-08-01T22:36:57.765Z,101361.83
2017-08-01T22:39:25.579Z,101362.62
2017-08-01T22:41:53.297Z,101364.88
2017-08-01T22:44:21.650Z,101367.55
2017-08-01T22:46:50.397Z,101359.71
2017-08-01T22:49:18.147Z,101359.92
2017-08-01T22:51:46.094Z,101356.23
2017-08-01T22:54:15.016Z,101358.64
2017-08-01T22:56:43.138Z,101357.39
2017-08-01T22:59:11.803Z,101368.55
2017-08-01T23:01:41.490Z,101364.56
2017-08-01T23:04:10.833Z,101357.92
2017-08-01T23:06:38.563Z,101360.47
2017-08-01T23:09:07.862Z,101361.14
2017-08-01T23:11:36.335Z,101365.12
2017-08-01T23:14:04.040Z,101374.05
2017-08-01T23:16:32.039Z,101378.66
2017-08-01T23:19:00.377Z,101380.33
2017-08-01T23:21:29.860Z,101373.36
2017-08-01T23:23:59.448Z,101379.37
2017-08-01T23:26:27.143Z,101376.27
2017-08-01T23:29:01.412Z,101382.88
2017-08-01T23:31:31.256Z,101384.83
2017-08-01T23:34:00.996Z,101396.23
2017-08-01T23:36:30.743Z,101391.67
2017-08-01T23:38:59.586Z,101391.34
2017-08-01T23:41:29.048Z,101397.17
2017-08-01T23:43:56.722Z,101398.95
2017-08-01T23:46:24.930Z,101402.77
2017-08-01T23:48:58.044Z,101402.64
2017-08-01T23:53:59.005Z,101407.31
2017-08-01T23:56:27.748Z,101403.78
2017-08-01T23:58:55.859Z,101402.20
